JST231 YBBN-YBUD
Flight info
| Callsign | JST231 |
|---|---|
| Flight time | 0h 31m |
| Altitude | 28000 |
| Route | BIXAD Q67 GUDSO Q295 SOSTU |
| Aircraft | A320/M-SDE3FGHIRWY/LB1 |
Departure
| Time | 2026-04-27 10:55 |
|---|---|
| Airport | Brisbane International Airport (YBBN) |
Arrival
| Time | 2026-04-27 11:26 |
|---|---|
| Airport | Bundaberg Airport (YBUD) |
| Time | Latitude | Longitude | Altitude | Speed | Heading |
|---|---|---|---|---|---|
| 2026-04-27 10:25 | -27.38684 | 153.12163 | 18 ft | 0 kts | 12° |
| 2026-04-27 10:40 | -27.38700 | 153.12159 | 18 ft | 4 kts | 17° |
| 2026-04-27 10:40 | -27.38725 | 153.12148 | 18 ft | 4 kts | 31° |
| 2026-04-27 10:41 | -27.38745 | 153.12130 | 20 ft | 4 kts | 66° |
| 2026-04-27 10:41 | -27.38747 | 153.12113 | 18 ft | 0 kts | 115° |
| 2026-04-27 10:41 | -27.38758 | 153.12135 | 19 ft | 4 kts | 119° |
| 2026-04-27 10:41 | -27.38767 | 153.12161 | 19 ft | 2 kts | 104° |
| 2026-04-27 10:42 | -27.38767 | 153.12163 | 19 ft | 0 kts | 104° |
| 2026-04-27 10:45 | -27.38767 | 153.12164 | 19 ft | 0 kts | 104° |
| 2026-04-27 10:46 | -27.38768 | 153.12165 | 19 ft | 1 kts | 104° |
| 2026-04-27 10:46 | -27.38772 | 153.12183 | 18 ft | 4 kts | 104° |
| 2026-04-27 10:46 | -27.38776 | 153.12201 | 18 ft | 4 kts | 104° |
| 2026-04-27 10:46 | -27.38789 | 153.12258 | 19 ft | 11 kts | 103° |
| 2026-04-27 10:47 | -27.38746 | 153.12334 | 19 ft | 14 kts | 31° |
| 2026-04-27 10:47 | -27.38633 | 153.12397 | 18 ft | 23 kts | 27° |
| 2026-04-27 10:47 | -27.38463 | 153.12499 | 18 ft | 30 kts | 27° |
| 2026-04-27 10:47 | -27.38273 | 153.12605 | 20 ft | 32 kts | 28° |
| 2026-04-27 10:48 | -27.38084 | 153.12714 | 20 ft | 26 kts | 27° |
| 2026-04-27 10:48 | -27.37947 | 153.12758 | 18 ft | 17 kts | 330° |
| 2026-04-27 10:48 | -27.37888 | 153.12635 | 18 ft | 19 kts | 296° |
| 2026-04-27 10:48 | -27.37823 | 153.12492 | 18 ft | 22 kts | 297° |
| 2026-04-27 10:49 | -27.37750 | 153.12332 | 18 ft | 24 kts | 297° |
| 2026-04-27 10:49 | -27.37672 | 153.12156 | 18 ft | 26 kts | 296° |
| 2026-04-27 10:49 | -27.37582 | 153.11969 | 18 ft | 28 kts | 299° |
| 2026-04-27 10:49 | -27.37494 | 153.11770 | 18 ft | 29 kts | 295° |
| 2026-04-27 10:50 | -27.37404 | 153.11572 | 18 ft | 20 kts | 302° |
| 2026-04-27 10:50 | -27.37304 | 153.11583 | 18 ft | 17 kts | 27° |
| 2026-04-27 10:50 | -27.37187 | 153.11649 | 18 ft | 22 kts | 26° |
| 2026-04-27 10:50 | -27.37032 | 153.11737 | 18 ft | 27 kts | 28° |
| 2026-04-27 10:51 | -27.36856 | 153.11837 | 17 ft | 29 kts | 26° |
| 2026-04-27 10:51 | -27.36670 | 153.11948 | 18 ft | 31 kts | 29° |
| 2026-04-27 10:51 | -27.36470 | 153.12061 | 18 ft | 33 kts | 24° |
| 2026-04-27 10:51 | -27.36260 | 153.12180 | 18 ft | 35 kts | 27° |
| 2026-04-27 10:52 | -27.36040 | 153.12306 | 18 ft | 36 kts | 27° |
| 2026-04-27 10:52 | -27.35875 | 153.12383 | 17 ft | 18 kts | 353° |
| 2026-04-27 10:52 | -27.35770 | 153.12307 | 18 ft | 16 kts | 325° |
| 2026-04-27 10:52 | -27.35756 | 153.12296 | 18 ft | 0 kts | 325° |
| 2026-04-27 10:54 | -27.35700 | 153.12246 | 20 ft | 19 kts | 311° |
| 2026-04-27 10:54 | -27.35752 | 153.12144 | 22 ft | 20 kts | 207° |
| 2026-04-27 10:54 | -27.36037 | 153.11981 | 24 ft | 79 kts | 206° |
| 2026-04-27 10:54 | -27.36709 | 153.11602 | 19 ft | 134 kts | 206° |
| 2026-04-27 10:55 | -27.37661 | 153.11052 | 115 ft | 167 kts | 207° |
| 2026-04-27 10:55 | -27.38695 | 153.10432 | 666 ft | 171 kts | 206° |
| 2026-04-27 10:55 | -27.39779 | 153.09789 | 1292 ft | 176 kts | 203° |
| 2026-04-27 10:55 | -27.40871 | 153.09163 | 1866 ft | 184 kts | 201° |
| 2026-04-27 10:56 | -27.42090 | 153.08486 | 2175 ft | 206 kts | 201° |
| 2026-04-27 10:56 | -27.43424 | 153.07744 | 2544 ft | 225 kts | 201° |
| 2026-04-27 10:56 | -27.44885 | 153.06924 | 3037 ft | 244 kts | 202° |
| 2026-04-27 10:56 | -27.46450 | 153.06038 | 3683 ft | 257 kts | 203° |
| 2026-04-27 10:57 | -27.47999 | 153.04988 | 4537 ft | 268 kts | 220° |
| 2026-04-27 10:57 | -27.48963 | 153.03156 | 5331 ft | 283 kts | 254° |
| 2026-04-27 10:57 | -27.49108 | 153.00927 | 6202 ft | 289 kts | 272° |
| 2026-04-27 10:57 | -27.48874 | 152.98660 | 7058 ft | 293 kts | 278° |
| 2026-04-27 10:58 | -27.48543 | 152.96386 | 7898 ft | 296 kts | 278° |
| 2026-04-27 10:58 | -27.48214 | 152.94073 | 8713 ft | 300 kts | 282° |
| 2026-04-27 10:58 | -27.47341 | 152.91948 | 9474 ft | 303 kts | 311° |
| 2026-04-27 10:58 | -27.45678 | 152.90525 | 10251 ft | 302 kts | 339° |
| 2026-04-27 10:59 | -27.43661 | 152.89951 | 10991 ft | 300 kts | 356° |
| 2026-04-27 10:59 | -27.41575 | 152.89721 | 11746 ft | 302 kts | 357° |
| 2026-04-27 10:59 | -27.39467 | 152.89503 | 12492 ft | 305 kts | 356° |
| 2026-04-27 11:00 | -27.35227 | 152.89084 | 13921 ft | 311 kts | 356° |
| 2026-04-27 11:00 | -27.33044 | 152.88868 | 14398 ft | 322 kts | 356° |
| 2026-04-27 11:00 | -27.30724 | 152.88639 | 14659 ft | 347 kts | 356° |
| 2026-04-27 11:00 | -27.28233 | 152.88392 | 14996 ft | 371 kts | 356° |
| 2026-04-27 11:01 | -27.25598 | 152.88129 | 15465 ft | 389 kts | 356° |
| 2026-04-27 11:01 | -27.22844 | 152.87852 | 15965 ft | 406 kts | 356° |
| 2026-04-27 11:01 | -27.19971 | 152.87563 | 16470 ft | 422 kts | 356° |
| 2026-04-27 11:01 | -27.16992 | 152.87265 | 16978 ft | 437 kts | 355° |
| 2026-04-27 11:02 | -27.13918 | 152.86955 | 17497 ft | 449 kts | 355° |
| 2026-04-27 11:02 | -27.10764 | 152.86639 | 18042 ft | 460 kts | 355° |
| 2026-04-27 11:02 | -27.07572 | 152.86318 | 18727 ft | 455 kts | 355° |
| 2026-04-27 11:02 | -27.04542 | 152.86013 | 19175 ft | 419 kts | 355° |
| 2026-04-27 11:03 | -27.01682 | 152.85726 | 19631 ft | 414 kts | 355° |
| 2026-04-27 11:03 | -26.98796 | 152.85437 | 20119 ft | 419 kts | 355° |
| 2026-04-27 11:03 | -26.95876 | 152.85145 | 20605 ft | 424 kts | 355° |
| 2026-04-27 11:03 | -26.92930 | 152.84853 | 21098 ft | 427 kts | 354° |
| 2026-04-27 11:04 | -26.89963 | 152.84562 | 21608 ft | 429 kts | 354° |
| 2026-04-27 11:04 | -26.86981 | 152.84269 | 22121 ft | 431 kts | 354° |
| 2026-04-27 11:04 | -26.83995 | 152.83971 | 22631 ft | 432 kts | 354° |
| 2026-04-27 11:04 | -26.80998 | 152.83669 | 23161 ft | 432 kts | 354° |
| 2026-04-27 11:05 | -26.77996 | 152.83368 | 23702 ft | 433 kts | 354° |
| 2026-04-27 11:05 | -26.74994 | 152.83066 | 24164 ft | 433 kts | 353° |
| 2026-04-27 11:05 | -26.71989 | 152.82767 | 24614 ft | 433 kts | 353° |
| 2026-04-27 11:05 | -26.68985 | 152.82469 | 25072 ft | 433 kts | 353° |
| 2026-04-27 11:06 | -26.65980 | 152.82172 | 25544 ft | 433 kts | 353° |
| 2026-04-27 11:06 | -26.63012 | 152.81728 | 26020 ft | 430 kts | 345° |
| 2026-04-27 11:06 | -26.60141 | 152.80961 | 26501 ft | 429 kts | 344° |
| 2026-04-27 11:06 | -26.57204 | 152.80172 | 27002 ft | 428 kts | 344° |
| 2026-04-27 11:07 | -26.54315 | 152.79393 | 27502 ft | 427 kts | 343° |
| 2026-04-27 11:07 | -26.51471 | 152.78623 | 27993 ft | 426 kts | 343° |
| 2026-04-27 11:07 | -26.48562 | 152.77834 | 28191 ft | 433 kts | 343° |
| 2026-04-27 11:07 | -26.45601 | 152.77028 | 28229 ft | 443 kts | 343° |
| 2026-04-27 11:08 | -26.39472 | 152.75358 | 28228 ft | 462 kts | 343° |
| 2026-04-27 11:08 | -26.33124 | 152.73637 | 28224 ft | 476 kts | 344° |
| 2026-04-27 11:09 | -26.26643 | 152.71886 | 28223 ft | 480 kts | 344° |
| 2026-04-27 11:09 | -26.20150 | 152.70143 | 28218 ft | 480 kts | 344° |
| 2026-04-27 11:10 | -26.13664 | 152.68411 | 28217 ft | 479 kts | 344° |
| 2026-04-27 11:10 | -26.07179 | 152.66666 | 28215 ft | 479 kts | 344° |
| 2026-04-27 11:11 | -26.00702 | 152.64922 | 28214 ft | 479 kts | 344° |
| 2026-04-27 11:11 | -25.94224 | 152.63183 | 28207 ft | 479 kts | 344° |
| 2026-04-27 11:12 | -25.87753 | 152.61445 | 28206 ft | 478 kts | 344° |
| 2026-04-27 11:12 | -25.81322 | 152.59719 | 28206 ft | 478 kts | 344° |
| 2026-04-27 11:13 | -25.74865 | 152.57999 | 28206 ft | 477 kts | 344° |
| 2026-04-27 11:13 | -25.68409 | 152.56280 | 28202 ft | 476 kts | 344° |
| 2026-04-27 11:14 | -25.63050 | 152.54854 | 28201 ft | 476 kts | 344° |
| 2026-04-27 11:14 | -25.56609 | 152.53134 | 28192 ft | 475 kts | 344° |
| 2026-04-27 11:15 | -25.50185 | 152.51417 | 28183 ft | 468 kts | 344° |
| 2026-04-27 11:15 | -25.47092 | 152.50605 | 28074 ft | 445 kts | 344° |
| 2026-04-27 11:15 | -25.44148 | 152.49837 | 27471 ft | 427 kts | 344° |
| 2026-04-27 11:16 | -25.41303 | 152.49090 | 26965 ft | 409 kts | 344° |
| 2026-04-27 11:16 | -25.38609 | 152.48406 | 26797 ft | 387 kts | 346° |
| 2026-04-27 11:16 | -25.35988 | 152.47867 | 26653 ft | 378 kts | 348° |
| 2026-04-27 11:16 | -25.33426 | 152.47422 | 26122 ft | 371 kts | 349° |
| 2026-04-27 11:17 | -25.30879 | 152.47011 | 25378 ft | 369 kts | 349° |
| 2026-04-27 11:17 | -25.28344 | 152.46604 | 24679 ft | 366 kts | 349° |
| 2026-04-27 11:17 | -25.25868 | 152.46195 | 24007 ft | 363 kts | 349° |
| 2026-04-27 11:17 | -25.23353 | 152.45762 | 23169 ft | 361 kts | 349° |
| 2026-04-27 11:18 | -25.20890 | 152.45325 | 22164 ft | 364 kts | 349° |
| 2026-04-27 11:18 | -25.18352 | 152.44871 | 21167 ft | 366 kts | 349° |
| 2026-04-27 11:18 | -25.15867 | 152.44430 | 20124 ft | 368 kts | 349° |
| 2026-04-27 11:18 | -25.13295 | 152.43976 | 18785 ft | 379 kts | 350° |
| 2026-04-27 11:19 | -25.10655 | 152.43510 | 17269 ft | 389 kts | 351° |
| 2026-04-27 11:19 | -25.07952 | 152.43035 | 15689 ft | 398 kts | 351° |
| 2026-04-27 11:19 | -25.05220 | 152.42355 | 14135 ft | 407 kts | 340° |
| 2026-04-27 11:19 | -25.02681 | 152.41035 | 11418 ft | 411 kts | 328° |
| 2026-04-27 11:20 | -25.00246 | 152.39271 | 8607 ft | 426 kts | 326° |
| 2026-04-27 11:20 | -24.97862 | 152.37495 | 6837 ft | 406 kts | 325° |
| 2026-04-27 11:20 | -24.95897 | 152.35439 | 5902 ft | 373 kts | 303° |
| 2026-04-27 11:20 | -24.95123 | 152.32912 | 5451 ft | 332 kts | 269° |
| 2026-04-27 11:21 | -24.95622 | 152.30591 | 4965 ft | 297 kts | 233° |
| 2026-04-27 11:21 | -24.97038 | 152.29188 | 4496 ft | 257 kts | 197° |
| 2026-04-27 11:21 | -24.98635 | 152.28893 | 4041 ft | 217 kts | 173° |
| 2026-04-27 11:21 | -25.00085 | 152.28921 | 3625 ft | 197 kts | 174° |
| 2026-04-27 11:22 | -25.01345 | 152.28951 | 3462 ft | 159 kts | 152° |
| 2026-04-27 11:22 | -25.01981 | 152.29731 | 3498 ft | 141 kts | 97° |
| 2026-04-27 11:22 | -25.01966 | 152.30818 | 3434 ft | 138 kts | 92° |
| 2026-04-27 11:22 | -25.01903 | 152.31845 | 3329 ft | 132 kts | 90° |
| 2026-04-27 11:23 | -25.01780 | 152.32854 | 3125 ft | 133 kts | 87° |
| 2026-04-27 11:23 | -25.01600 | 152.33850 | 2897 ft | 133 kts | 83° |
| 2026-04-27 11:23 | -25.01260 | 152.34812 | 2718 ft | 140 kts | 65° |
| 2026-04-27 11:23 | -25.00530 | 152.35575 | 2545 ft | 152 kts | 40° |
| 2026-04-27 11:24 | -24.99610 | 152.36167 | 2329 ft | 154 kts | 37° |
| 2026-04-27 11:24 | -24.98618 | 152.36650 | 2130 ft | 157 kts | 30° |
| 2026-04-27 11:24 | -24.97560 | 152.36993 | 1926 ft | 161 kts | 20° |
| 2026-04-27 11:24 | -24.96450 | 152.36733 | 1706 ft | 172 kts | 321° |
| 2026-04-27 11:25 | -24.95515 | 152.35915 | 1362 ft | 174 kts | 320° |
| 2026-04-27 11:25 | -24.94548 | 152.35076 | 973 ft | 176 kts | 328° |
| 2026-04-27 11:25 | -24.93549 | 152.34354 | 685 ft | 170 kts | 328° |
| 2026-04-27 11:25 | -24.92574 | 152.33701 | 466 ft | 161 kts | 328° |
| 2026-04-27 11:26 | -24.91640 | 152.33052 | 206 ft | 155 kts | 326° |
| 2026-04-27 11:26 | -24.90818 | 152.32475 | 111 ft | 109 kts | 328° |
| 2026-04-27 11:26 | -24.90313 | 152.32132 | 111 ft | 39 kts | 326° |
| 2026-04-27 11:26 | -24.90083 | 152.31969 | 109 ft | 29 kts | 329° |
| 2026-04-27 11:27 | -24.89973 | 152.31901 | 109 ft | 14 kts | 349° |
| 2026-04-27 11:27 | -24.89909 | 152.31975 | 109 ft | 15 kts | 60° |
| 2026-04-27 11:27 | -24.89879 | 152.32047 | 109 ft | 5 kts | 84° |
| 2026-04-27 11:27 | -24.89882 | 152.32069 | 109 ft | 0 kts | 102° |